CJE5 weather

Glaslyn Airport
Glaslyn, Saskatchewan, Canada

Public forecast

Using degrees Celsius for public forecast. Weather courtesy of forecast.io.

METAR (pilot weather report)

Closest report is North Battleford Airport, 36.7 nm (67.9 km) S. Retrieved 2019/04/20 15:00 UTC (52 minutes ago):

CYQW 201500Z AUTO 28010KT 9SM CLR 07/M01 A2982 RMK SLP114

TAF (pilot weather forecast)

Closest forecast is North Battleford Airport, 36.7 nm (67.9 km) S. Retrieved 2019/04/20 12:42 UTC (3 hours ago):

TAF CYQW 201139Z 2012/2024 30007KT P6SM SKC BECMG 2015/2017 30014G24KT FM201900 30015G25KT P6SM SCT100 RMK FCST BASED ON AUTO OBS. NXT FCST BY 201800Z